sensor_id;sensor_type;location;lat;lon;timestamp;pressure;altitude;pressure_sealevel;temperature;humidity
7026;BME280;3554;42.132;24.786;2023-03-01T00:01:17;100082.56;;;5.83;100.00
7026;BME280;3554;42.132;24.786;2023-03-01T00:03:44;100148.88;;;6.16;100.00
7026;BME280;3554;42.132;24.786;2023-03-01T00:06:13;100144.56;;;6.16;100.00
7026;BME280;3554;42.132;24.786;2023-03-01T00:08:40;100128.97;;;6.16;100.00
7026;BME280;3554;42.132;24.786;2023-03-01T00:11:11;100153.13;;;6.26;100.00
7026;BME280;3554;42.132;24.786;2023-03-01T00:13:39;100154.94;;;6.19;100.00
7026;BME280;3554;42.132;24.786;2023-03-01T00:16:08;100146.19;;;6.26;100.00
7026;BME280;3554;42.132;24.786;2023-03-01T00:18:35;100153.16;;;6.24;100.00
7026;BME280;3554;42.132;24.786;2023-03-01T00:21:02;100080.81;;;5.85;100.00
7026;BME280;3554;42.132;24.786;2023-03-01T00:23:31;100147.03;;;6.27;100.00
7026;BME280;3554;42.132;24.786;2023-03-01T00:25:58;100149.59;;;6.28;100.00
7026;BME280;3554;42.132;24.786;2023-03-01T00:28:24;100141.91;;;6.22;100.00
7026;BME280;3554;42.132;24.786;2023-03-01T00:30:51;100158.34;;;6.21;100.00
7026;BME280;3554;42.132;24.786;2023-03-01T00:33:18;100160.13;;;6.19;100.00
7026;BME280;3554;42.132;24.786;2023-03-01T00:35:45;100098.94;;;5.88;100.00
7026;BME280;3554;42.132;24.786;2023-03-01T00:38:12;100156.56;;;6.25;100.00
7026;BME280;3554;42.132;24.786;2023-03-01T00:40:40;100158.22;;;6.35;100.00
7026;BME280;3554;42.132;24.786;2023-03-01T00:43:06;100155.72;;;6.26;100.00
7026;BME280;3554;42.132;24.786;2023-03-01T00:45:33;100158.25;;;6.33;100.00
7026;BME280;3554;42.132;24.786;2023-03-01T00:48:00;100132.38;;;6.20;100.00
7026;BME280;3554;42.132;24.786;2023-03-01T00:50:27;100149.63;;;6.27;100.00
7026;BME280;3554;42.132;24.786;2023-03-01T00:52:54;100152.22;;;6.27;100.00
7026;BME280;3554;42.132;24.786;2023-03-01T00:55:22;100142.69;;;6.27;100.00
7026;BME280;3554;42.132;24.786;2023-03-01T00:57:51;100149.56;;;6.33;100.00
7026;BME280;3554;42.132;24.786;2023-03-01T01:00:19;100132.34;;;6.24;100.00
7026;BME280;3554;42.132;24.786;2023-03-01T01:02:46;100155.75;;;6.24;100.00
7026;BME280;3554;42.132;24.786;2023-03-01T01:05:13;100153.94;;;6.31;100.00
7026;BME280;3554;42.132;24.786;2023-03-01T01:07:40;100156.53;;;6.29;100.00
7026;BME280;3554;42.132;24.786;2023-03-01T01:10:08;100142.69;;;6.27;100.00
7026;BME280;3554;42.132;24.786;2023-03-01T01:12:38;100161.78;;;6.28;100.00
7026;BME280;3554;42.132;24.786;2023-03-01T01:15:07;100149.59;;;6.31;100.00
7026;BME280;3554;42.132;24.786;2023-03-01T01:17:34;100148.66;;;6.38;100.00
7026;BME280;3554;42.132;24.786;2023-03-01T01:20:01;100139.94;;;6.41;100.00
7026;BME280;3554;42.132;24.786;2023-03-01T01:22:28;100147.72;;;6.41;100.00
7026;BME280;3554;42.132;24.786;2023-03-01T01:24:55;100153.78;;;6.43;100.00
7026;BME280;3554;42.132;24.786;2023-03-01T01:27:22;100139.97;;;6.38;100.00
7026;BME280;3554;42.132;24.786;2023-03-01T01:29:49;100166.81;;;6.40;100.00
7026;BME280;3554;42.132;24.786;2023-03-01T01:32:17;100156.44;;;6.40;100.00
7026;BME280;3554;42.132;24.786;2023-03-01T01:34:44;100163.44;;;6.33;100.00
7026;BME280;3554;42.132;24.786;2023-03-01T01:37:11;100168.66;;;6.29;100.00
7026;BME280;3554;42.132;24.786;2023-03-01T01:39:38;100168.69;;;6.27;100.00
7026;BME280;3554;42.132;24.786;2023-03-01T01:42:05;100168.75;;;6.24;100.00
7026;BME280;3554;42.132;24.786;2023-03-01T01:44:33;100161.78;;;6.26;100.00
7026;BME280;3554;42.132;24.786;2023-03-01T01:47:02;100185.94;;;6.34;100.00
7026;BME280;3554;42.132;24.786;2023-03-01T01:49:36;100179.03;;;6.35;100.00
7026;BME280;3554;42.132;24.786;2023-03-01T01:52:09;100189.38;;;6.38;100.00
7026;BME280;3554;42.132;24.786;2023-03-01T01:54:42;100189.41;;;6.36;100.00
7026;BME280;3554;42.132;24.786;2023-03-01T01:57:13;100186.00;;;6.31;100.00
7026;BME280;3554;42.132;24.786;2023-03-01T01:59:43;100191.22;;;6.27;100.00
7026;BME280;3554;42.132;24.786;2023-03-01T02:02:12;100137.00;;;5.94;100.00
7026;BME280;3554;42.132;24.786;2023-03-01T02:04:41;100185.22;;;6.22;100.00
7026;BME280;3554;42.132;24.786;2023-03-01T02:07:14;100175.72;;;6.18;100.00
7026;BME280;3554;42.132;24.786;2023-03-01T02:09:45;100187.75;;;6.28;100.00
7026;BME280;3554;42.132;24.786;2023-03-01T02:12:13;100173.06;;;6.24;100.00
7026;BME280;3554;42.132;24.786;2023-03-01T02:14:41;100183.31;;;6.36;100.00
7026;BME280;3554;42.132;24.786;2023-03-01T02:17:07;100190.34;;;6.29;100.00
7026;BME280;3554;42.132;24.786;2023-03-01T02:19:44;100188.72;;;6.19;100.00
7026;BME280;3554;42.132;24.786;2023-03-01T02:22:18;100176.50;;;6.27;100.00
7026;BME280;3554;42.132;24.786;2023-03-01T02:24:57;100173.94;;;6.24;100.00
7026;BME280;3554;42.132;24.786;2023-03-01T02:27:35;100177.41;;;6.23;100.00
7026;BME280;3554;42.132;24.786;2023-03-01T02:30:07;100170.53;;;6.16;100.00
7026;BME280;3554;42.132;24.786;2023-03-01T02:32:38;100179.19;;;6.18;100.00
7026;BME280;3554;42.132;24.786;2023-03-01T02:35:08;100176.63;;;6.12;100.00
7026;BME280;3554;42.132;24.786;2023-03-01T02:37:35;100166.25;;;6.11;100.00
7026;BME280;3554;42.132;24.786;2023-03-01T02:40:07;100170.56;;;6.15;100.00
7026;BME280;3554;42.132;24.786;2023-03-01T02:42:43;100161.94;;;6.10;100.00
7026;BME280;3554;42.132;24.786;2023-03-01T02:45:15;100140.41;;;5.99;100.00
7026;BME280;3554;42.132;24.786;2023-03-01T02:47:41;100155.03;;;6.07;100.00
7026;BME280;3554;42.132;24.786;2023-03-01T02:50:19;100147.25;;;6.06;100.00
7026;BME280;3554;42.132;24.786;2023-03-01T02:52:54;100131.63;;;6.09;100.00
7026;BME280;3554;42.132;24.786;2023-03-01T02:55:23;100136.00;;;6.04;100.00
7026;BME280;3554;42.132;24.786;2023-03-01T02:57:50;100132.53;;;6.06;100.00
7026;BME280;3554;42.132;24.786;2023-03-01T03:00:20;100125.63;;;6.02;100.00
7026;BME280;3554;42.132;24.786;2023-03-01T03:02:50;100120.50;;;5.96;100.00
7026;BME280;3554;42.132;24.786;2023-03-01T03:05:19;100050.72;;;5.60;100.00
7026;BME280;3554;42.132;24.786;2023-03-01T03:07:48;100107.47;;;6.01;100.00
7026;BME280;3554;42.132;24.786;2023-03-01T03:10:16;100092.81;;;5.95;100.00
7026;BME280;3554;42.132;24.786;2023-03-01T03:12:49;100091.94;;;5.95;100.00
7026;BME280;3554;42.132;24.786;2023-03-01T03:15:17;100078.81;;;6.08;100.00
7026;BME280;3554;42.132;24.786;2023-03-01T03:17:46;100075.38;;;6.06;100.00
7026;BME280;3554;42.132;24.786;2023-03-01T03:20:14;100062.47;;;5.97;100.00
7026;BME280;3554;42.132;24.786;2023-03-01T03:22:45;100065.03;;;6.03;100.00
7026;BME280;3554;42.132;24.786;2023-03-01T03:25:12;100063.28;;;6.02;100.00
7026;BME280;3554;42.132;24.786;2023-03-01T03:27:40;100015.88;;;5.81;100.00
7026;BME280;3554;42.132;24.786;2023-03-01T03:30:10;100054.50;;;6.14;100.00
7026;BME280;3554;42.132;24.786;2023-03-01T03:32:39;100054.53;;;6.09;100.00
7026;BME280;3554;42.132;24.786;2023-03-01T03:35:08;100052.84;;;6.08;100.00
7026;BME280;3554;42.132;24.786;2023-03-01T03:37:36;100046.59;;;6.21;100.00
7026;BME280;3554;42.132;24.786;2023-03-01T03:40:20;100038.69;;;6.29;100.00
7026;BME280;3554;42.132;24.786;2023-03-01T03:42:47;100030.09;;;6.25;100.00
7026;BME280;3554;42.132;24.786;2023-03-01T03:45:14;100037.13;;;6.17;100.00
7026;BME280;3554;42.132;24.786;2023-03-01T03:47:43;100036.31;;;6.14;100.00
7026;BME280;3554;42.132;24.786;2023-03-01T03:50:11;100023.47;;;6.00;100.00
7026;BME280;3554;42.132;24.786;2023-03-01T03:52:38;100024.25;;;6.08;100.00
7026;BME280;3554;42.132;24.786;2023-03-01T03:55:07;100025.25;;;5.97;100.00
7026;BME280;3554;42.132;24.786;2023-03-01T03:57:36;100018.31;;;5.97;100.00
7026;BME280;3554;42.132;24.786;2023-03-01T04:00:04;100024.34;;;6.01;100.00
7026;BME280;3554;42.132;24.786;2023-03-01T04:02:38;100024.44;;;5.92;100.00
7026;BME280;3554;42.132;24.786;2023-03-01T04:05:08;100020.00;;;6.01;100.00
7026;BME280;3554;42.132;24.786;2023-03-01T04:07:36;99988.06;;;5.92;100.00
7026;BME280;3554;42.132;24.786;2023-03-01T04:10:06;100015.75;;;5.96;100.00
7026;BME280;3554;42.132;24.786;2023-03-01T04:12:34;99982.94;;;5.84;100.00
7026;BME280;3554;42.132;24.786;2023-03-01T04:15:01;99998.38;;;5.96;100.00
7026;BME280;3554;42.132;24.786;2023-03-01T04:17:38;99997.53;;;5.97;100.00
7026;BME280;3554;42.132;24.786;2023-03-01T04:20:08;99992.25;;;6.05;100.00
7026;BME280;3554;42.132;24.786;2023-03-01T04:22:36;99998.38;;;5.99;100.00
7026;BME280;3554;42.132;24.786;2023-03-01T04:25:03;99994.03;;;5.98;100.00
7026;BME280;3554;42.132;24.786;2023-03-01T04:27:32;99987.25;;;5.88;100.00
7026;BME280;3554;42.132;24.786;2023-03-01T04:29:58;99976.84;;;5.88;100.00
7026;BME280;3554;42.132;24.786;2023-03-01T04:32:25;99966.38;;;5.93;100.00
7026;BME280;3554;42.132;24.786;2023-03-01T04:34:52;99972.53;;;5.89;100.00
7026;BME280;3554;42.132;24.786;2023-03-01T04:37:20;99968.16;;;5.92;100.00
7026;BME280;3554;42.132;24.786;2023-03-01T04:39:47;99969.00;;;5.93;100.00
7026;BME280;3554;42.132;24.786;2023-03-01T04:42:14;99949.16;;;5.86;100.00
7026;BME280;3554;42.132;24.786;2023-03-01T04:44:42;99955.00;;;6.04;100.00
7026;BME280;3554;42.132;24.786;2023-03-01T04:47:08;99954.19;;;5.99;100.00
7026;BME280;3554;42.132;24.786;2023-03-01T04:49:35;99937.88;;;5.90;100.00
7026;BME280;3554;42.132;24.786;2023-03-01T04:52:03;99936.06;;;5.95;100.00
7026;BME280;3554;42.132;24.786;2023-03-01T04:54:32;99936.84;;;6.01;100.00
7026;BME280;3554;42.132;24.786;2023-03-01T04:57:00;99932.47;;;6.05;100.00
7026;BME280;3554;42.132;24.786;2023-03-01T04:59:27;99932.53;;;6.00;100.00
7026;BME280;3554;42.132;24.786;2023-03-01T05:01:55;99929.13;;;5.95;100.00
7026;BME280;3554;42.132;24.786;2023-03-01T05:04:23;99914.56;;;5.85;100.00
7026;BME280;3554;42.132;24.786;2023-03-01T05:06:50;99918.84;;;5.88;100.00
7026;BME280;3554;42.132;24.786;2023-03-01T05:09:19;99919.53;;;6.00;100.00
7026;BME280;3554;42.132;24.786;2023-03-01T05:11:47;99901.38;;;5.99;100.00
7026;BME280;3554;42.132;24.786;2023-03-01T05:14:14;99913.53;;;5.95;100.00
7026;BME280;3554;42.132;24.786;2023-03-01T05:16:40;99903.16;;;5.95;100.00
7026;BME280;3554;42.132;24.786;2023-03-01T05:19:07;99894.44;;;5.99;100.00
7026;BME280;3554;42.132;24.786;2023-03-01T05:21:41;99883.25;;;5.94;100.00
7026;BME280;3554;42.132;24.786;2023-03-01T05:24:22;99895.31;;;5.98;100.00
7026;BME280;3554;42.132;24.786;2023-03-01T05:26:50;99834.28;;;5.66;100.00
7026;BME280;3554;42.132;24.786;2023-03-01T05:29:18;99897.84;;;6.04;100.00
7026;BME280;3554;42.132;24.786;2023-03-01T05:31:51;99898.72;;;6.05;100.00
7026;BME280;3554;42.132;24.786;2023-03-01T05:34:17;99905.59;;;6.07;100.00
7026;BME280;3554;42.132;24.786;2023-03-01T05:36:44;99902.16;;;6.07;100.00
7026;BME280;3554;42.132;24.786;2023-03-01T05:39:11;99903.13;;;6.00;100.00
7026;BME280;3554;42.132;24.786;2023-03-01T05:41:38;99913.56;;;5.94;100.00
7026;BME280;3554;42.132;24.786;2023-03-01T05:44:07;99896.19;;;5.99;100.00
7026;BME280;3554;42.132;24.786;2023-03-01T05:46:34;99907.34;;;6.07;100.00
7026;BME280;3554;42.132;24.786;2023-03-01T05:49:00;99904.78;;;6.02;100.00
7026;BME280;3554;42.132;24.786;2023-03-01T05:51:27;99909.06;;;6.06;100.00
7026;BME280;3554;42.132;24.786;2023-03-01T05:53:54;99907.44;;;5.99;100.00
7026;BME280;3554;42.132;24.786;2023-03-01T05:56:21;99909.88;;;6.11;100.00
7026;BME280;3554;42.132;24.786;2023-03-01T05:58:48;99911.72;;;6.03;100.00
7026;BME280;3554;42.132;24.786;2023-03-01T06:01:17;99905.56;;;6.09;100.00
7026;BME280;3554;42.132;24.786;2023-03-01T06:03:43;99918.47;;;6.15;100.00
7026;BME280;3554;42.132;24.786;2023-03-01T06:06:10;99924.44;;;6.21;100.00
7026;BME280;3554;42.132;24.786;2023-03-01T06:08:37;99928.81;;;6.18;100.00
7026;BME280;3554;42.132;24.786;2023-03-01T06:11:04;99921.00;;;6.18;100.00
7026;BME280;3554;42.132;24.786;2023-03-01T06:13:32;99923.63;;;6.18;100.00
7026;BME280;3554;42.132;24.786;2023-03-01T06:15:59;99927.03;;;6.23;100.00
7026;BME280;3554;42.132;24.786;2023-03-01T06:18:27;99917.53;;;6.20;100.00
7026;BME280;3554;42.132;24.786;2023-03-01T06:20:54;99921.69;;;6.32;100.00
7026;BME280;3554;42.132;24.786;2023-03-01T06:23:21;99919.88;;;6.35;100.00
7026;BME280;3554;42.132;24.786;2023-03-01T06:25:48;99920.84;;;6.28;100.00
7026;BME280;3554;42.132;24.786;2023-03-01T06:28:15;99930.28;;;6.35;100.00
7026;BME280;3554;42.132;24.786;2023-03-01T06:30:42;99931.25;;;6.31;100.00
7026;BME280;3554;42.132;24.786;2023-03-01T06:33:09;99938.09;;;6.35;100.00
7026;BME280;3554;42.132;24.786;2023-03-01T06:35:37;99932.00;;;6.38;100.00
7026;BME280;3554;42.132;24.786;2023-03-01T06:38:05;99931.25;;;6.28;100.00
7026;BME280;3554;42.132;24.786;2023-03-01T06:40:32;99932.88;;;6.35;100.00
7026;BME280;3554;42.132;24.786;2023-03-01T06:43:01;99927.59;;;6.43;100.00
7026;BME280;3554;42.132;24.786;2023-03-01T06:45:28;99935.47;;;6.38;100.00
7026;BME280;3554;42.132;24.786;2023-03-01T06:48:01;99935.34;;;6.46;100.00
7026;BME280;3554;42.132;24.786;2023-03-01T06:50:28;99935.16;;;6.58;100.00
7026;BME280;3554;42.132;24.786;2023-03-01T06:52:57;99923.22;;;6.45;100.00
7026;BME280;3554;42.132;24.786;2023-03-01T06:55:24;99925.66;;;6.56;100.00
7026;BME280;3554;42.132;24.786;2023-03-01T06:57:54;99941.22;;;6.59;100.00
7026;BME280;3554;42.132;24.786;2023-03-01T07:00:22;99945.63;;;6.53;100.00
7026;BME280;3554;42.132;24.786;2023-03-01T07:02:49;99945.69;;;6.50;100.00
7026;BME280;3554;42.132;24.786;2023-03-01T07:05:16;99950.78;;;6.55;100.00
7026;BME280;3554;42.132;24.786;2023-03-01T07:07:43;99955.00;;;6.65;100.00
7026;BME280;3554;42.132;24.786;2023-03-01T07:10:12;99951.53;;;6.65;100.00
7026;BME280;3554;42.132;24.786;2023-03-01T07:12:39;99946.31;;;6.65;100.00
7026;BME280;3554;42.132;24.786;2023-03-01T07:15:08;99959.91;;;6.83;100.00
7026;BME280;3554;42.132;24.786;2023-03-01T07:17:36;99953.75;;;6.89;100.00
7026;BME280;3554;42.132;24.786;2023-03-01T07:20:03;99971.16;;;6.85;100.00
7026;BME280;3554;42.132;24.786;2023-03-01T07:22:30;99965.72;;;6.99;100.00
7026;BME280;3554;42.132;24.786;2023-03-01T07:24:58;99973.72;;;6.87;100.00
7026;BME280;3554;42.132;24.786;2023-03-01T07:27:26;99977.19;;;6.86;100.00
7026;BME280;3554;42.132;24.786;2023-03-01T07:29:53;99980.59;;;6.89;100.00
7026;BME280;3554;42.132;24.786;2023-03-01T07:32:19;99982.31;;;6.92;100.00
7026;BME280;3554;42.132;24.786;2023-03-01T07:34:46;99986.69;;;6.90;100.00
7026;BME280;3554;42.132;24.786;2023-03-01T07:37:13;100004.88;;;6.90;100.00
7026;BME280;3554;42.132;24.786;2023-03-01T07:39:40;100002.38;;;6.84;100.00
7026;BME280;3554;42.132;24.786;2023-03-01T07:42:07;100005.66;;;6.95;100.00
7026;BME280;3554;42.132;24.786;2023-03-01T07:44:35;100019.47;;;7.00;100.00
7026;BME280;3554;42.132;24.786;2023-03-01T07:47:02;100030.56;;;7.11;100.00
7026;BME280;3554;42.132;24.786;2023-03-01T07:49:29;100033.13;;;7.15;100.00
7026;BME280;3554;42.132;24.786;2023-03-01T07:51:56;100048.50;;;7.29;100.00
7026;BME280;3554;42.132;24.786;2023-03-01T07:54:23;100065.97;;;7.22;100.00
7026;BME280;3554;42.132;24.786;2023-03-01T07:56:51;100081.47;;;7.28;100.00
7026;BME280;3554;42.132;24.786;2023-03-01T07:59:20;100092.78;;;7.27;100.00
7026;BME280;3554;42.132;24.786;2023-03-01T08:01:48;100102.44;;;7.19;100.00
7026;BME280;3554;42.132;24.786;2023-03-01T08:04:15;100117.22;;;7.19;100.00
7026;BME280;3554;42.132;24.786;2023-03-01T08:06:41;100132.94;;;7.13;100.00
7026;BME280;3554;42.132;24.786;2023-03-01T08:09:08;100151.22;;;7.08;100.00
7026;BME280;3554;42.132;24.786;2023-03-01T08:11:35;100162.47;;;7.09;100.00
7026;BME280;3554;42.132;24.786;2023-03-01T08:14:02;100167.59;;;7.16;100.00
7026;BME280;3554;42.132;24.786;2023-03-01T08:16:29;100180.56;;;7.21;100.00
7026;BME280;3554;42.132;24.786;2023-03-01T08:18:57;100184.88;;;7.22;100.00
7026;BME280;3554;42.132;24.786;2023-03-01T08:21:26;100193.47;;;7.27;100.00
7026;BME280;3554;42.132;24.786;2023-03-01T08:23:53;100203.00;;;7.26;100.00
7026;BME280;3554;42.132;24.786;2023-03-01T08:26:21;100211.03;;;7.13;100.00
7026;BME280;3554;42.132;24.786;2023-03-01T08:28:49;100208.22;;;7.26;100.00
7026;BME280;3554;42.132;24.786;2023-03-01T08:31:19;100193.63;;;7.16;100.00
7026;BME280;3554;42.132;24.786;2023-03-01T08:33:47;100204.00;;;7.18;100.00
7026;BME280;3554;42.132;24.786;2023-03-01T08:36:18;100215.38;;;7.11;100.00
7026;BME280;3554;42.132;24.786;2023-03-01T08:38:46;100211.97;;;7.07;100.00
7026;BME280;3554;42.132;24.786;2023-03-01T08:41:13;100138.75;;;6.69;100.00
7026;BME280;3554;42.132;24.786;2023-03-01T08:43:40;100211.69;;;7.27;100.00
7026;BME280;3554;42.132;24.786;2023-03-01T08:46:07;100203.88;;;7.27;100.00
7026;BME280;3554;42.132;24.786;2023-03-01T08:48:34;100208.38;;;7.16;100.00
7026;BME280;3554;42.132;24.786;2023-03-01T08:51:07;100191.78;;;7.23;100.00
7026;BME280;3554;42.132;24.786;2023-03-01T08:53:36;100176.22;;;7.20;100.00
7026;BME280;3554;42.132;24.786;2023-03-01T08:56:04;100176.78;;;7.40;100.00
7026;BME280;3554;42.132;24.786;2023-03-01T08:58:31;100184.59;;;7.40;100.00
7026;BME280;3554;42.132;24.786;2023-03-01T09:00:58;100185.66;;;7.27;100.00
7026;BME280;3554;42.132;24.786;2023-03-01T09:03:26;100177.78;;;7.33;100.00
7026;BME280;3554;42.132;24.786;2023-03-01T09:05:53;100183.78;;;7.36;100.00
7026;BME280;3554;42.132;24.786;2023-03-01T09:08:26;100181.38;;;7.21;100.00
7026;BME280;3554;42.132;24.786;2023-03-01T09:10:54;100181.22;;;7.32;100.00
7026;BME280;3554;42.132;24.786;2023-03-01T09:13:21;100183.09;;;7.24;100.00
7026;BME280;3554;42.132;24.786;2023-03-01T09:15:49;100178.91;;;7.15;100.00
7026;BME280;3554;42.132;24.786;2023-03-01T09:18:15;100177.06;;;7.22;100.00
7026;BME280;3554;42.132;24.786;2023-03-01T09:20:42;100177.00;;;7.25;100.00
7026;BME280;3554;42.132;24.786;2023-03-01T09:23:09;100179.78;;;7.13;100.00
7026;BME280;3554;42.132;24.786;2023-03-01T09:25:36;100166.59;;;7.25;100.00
7026;BME280;3554;42.132;24.786;2023-03-01T09:28:04;100164.78;;;7.28;100.00
7026;BME280;3554;42.132;24.786;2023-03-01T09:30:31;100151.75;;;7.30;100.00
7026;BME280;3554;42.132;24.786;2023-03-01T09:32:58;100152.53;;;7.36;100.00
7026;BME280;3554;42.132;24.786;2023-03-01T09:35:25;100143.75;;;7.43;100.00
7026;BME280;3554;42.132;24.786;2023-03-01T09:37:51;100138.66;;;7.36;100.00
7026;BME280;3554;42.132;24.786;2023-03-01T09:40:19;100135.28;;;7.29;100.00
7026;BME280;3554;42.132;24.786;2023-03-01T09:42:51;100140.53;;;7.28;100.00
7026;BME280;3554;42.132;24.786;2023-03-01T09:45:26;100151.00;;;7.23;100.00
7026;BME280;3554;42.132;24.786;2023-03-01T09:47:54;100133.78;;;7.15;100.00
7026;BME280;3554;42.132;24.786;2023-03-01T09:50:22;100131.00;;;7.25;100.00
7026;BME280;3554;42.132;24.786;2023-03-01T09:53:01;100118.56;;;7.44;100.00
7026;BME280;3554;42.132;24.786;2023-03-01T09:55:31;100094.63;;;7.73;100.00
7026;BME280;3554;42.132;24.786;2023-03-01T09:58:06;100087.59;;;7.76;100.00
7026;BME280;3554;42.132;24.786;2023-03-01T10:00:43;100073.13;;;7.62;100.00
7026;BME280;3554;42.132;24.786;2023-03-01T10:03:16;100106.09;;;7.63;100.00
7026;BME280;3554;42.132;24.786;2023-03-01T10:05:53;100094.91;;;7.57;100.00
7026;BME280;3554;42.132;24.786;2023-03-01T10:08:33;100086.34;;;7.49;100.00
7026;BME280;3554;42.132;24.786;2023-03-01T10:11:02;100103.13;;;7.32;100.00
7026;BME280;3554;42.132;24.786;2023-03-01T10:13:37;100075.09;;;7.47;100.00
7026;BME280;3554;42.132;24.786;2023-03-01T10:16:13;100075.88;;;7.52;100.00
7026;BME280;3554;42.132;24.786;2023-03-01T10:18:44;100074.13;;;7.53;100.00
7026;BME280;3554;42.132;24.786;2023-03-01T10:21:15;100056.81;;;7.50;100.00
7026;BME280;3554;42.132;24.786;2023-03-01T10:23:44;100064.50;;;7.56;100.00
7026;BME280;3554;42.132;24.786;2023-03-01T10:26:25;100074.13;;;7.54;100.00
7026;BME280;3554;42.132;24.786;2023-03-01T10:29:02;100068.22;;;7.43;100.00
7026;BME280;3554;42.132;24.786;2023-03-01T10:31:38;100062.94;;;7.46;100.00
7026;BME280;3554;42.132;24.786;2023-03-01T10:34:09;100038.91;;;7.31;100.00
7026;BME280;3554;42.132;24.786;2023-03-01T10:36:38;100044.22;;;7.25;100.00
7026;BME280;3554;42.132;24.786;2023-03-01T10:39:12;100046.81;;;7.25;100.00
7026;BME280;3554;42.132;24.786;2023-03-01T10:41:53;100031.63;;;7.01;100.00
7026;BME280;3554;42.132;24.786;2023-03-01T10:44:38;100013.28;;;7.08;100.00
7026;BME280;3554;42.132;24.786;2023-03-01T10:47:14;99992.91;;;7.31;100.00
7026;BME280;3554;42.132;24.786;2023-03-01T10:49:52;99983.41;;;7.29;100.00
7026;BME280;3554;42.132;24.786;2023-03-01T10:52:21;99962.53;;;7.30;100.00
7026;BME280;3554;42.132;24.786;2023-03-01T10:54:54;99948.16;;;7.57;100.00
7026;BME280;3554;42.132;24.786;2023-03-01T10:57:32;99912.19;;;7.33;100.00
7026;BME280;3554;42.132;24.786;2023-03-01T11:00:15;99937.06;;;7.47;100.00
7026;BME280;3554;42.132;24.786;2023-03-01T11:02:47;99932.84;;;7.42;100.00
7026;BME280;3554;42.132;24.786;2023-03-01T11:05:21;99913.91;;;7.32;100.00
7026;BME280;3554;42.132;24.786;2023-03-01T11:07:51;99912.19;;;7.33;100.00
7026;BME280;3554;42.132;24.786;2023-03-01T11:10:20;99901.00;;;7.26;100.00
7026;BME280;3554;42.132;24.786;2023-03-01T11:12:47;99898.50;;;7.65;100.00
7026;BME280;3554;42.132;24.786;2023-03-01T11:15:25;99897.09;;;7.48;100.00
7026;BME280;3554;42.132;24.786;2023-03-01T11:17:56;99889.44;;;7.41;100.00
7026;BME280;3554;42.132;24.786;2023-03-01T11:20:29;99892.25;;;7.30;100.00
7026;BME280;3554;42.132;24.786;2023-03-01T11:23:00;99902.47;;;7.41;100.00
7026;BME280;3554;42.132;24.786;2023-03-01T11:25:31;99903.59;;;7.28;100.00
7026;BME280;3554;42.132;24.786;2023-03-01T11:27:59;99887.78;;;7.38;100.00
7026;BME280;3554;42.132;24.786;2023-03-01T11:30:31;99887.31;;;7.61;100.00
7026;BME280;3554;42.132;24.786;2023-03-01T11:33:07;99882.72;;;7.72;100.00
7026;BME280;3554;42.132;24.786;2023-03-01T11:35:37;99882.97;;;7.60;100.00
7026;BME280;3554;42.132;24.786;2023-03-01T11:38:16;99883.31;;;7.43;100.00
7026;BME280;3554;42.132;24.786;2023-03-01T11:40:47;99884.13;;;7.47;100.00
7026;BME280;3554;42.132;24.786;2023-03-01T11:43:22;99883.31;;;7.43;100.00
7026;BME280;3554;42.132;24.786;2023-03-01T11:46:08;99875.47;;;7.45;100.00
7026;BME280;3554;42.132;24.786;2023-03-01T11:48:50;99865.03;;;7.46;100.00
7026;BME280;3554;42.132;24.786;2023-03-01T11:51:24;99860.53;;;7.54;100.00
7026;BME280;3554;42.132;24.786;2023-03-01T11:54:03;99863.66;;;7.70;100.00
7026;BME280;3554;42.132;24.786;2023-03-01T11:56:35;99867.09;;;7.72;100.00
7026;BME280;3554;42.132;24.786;2023-03-01T12:02:26;99889.16;;;7.56;100.00
7026;BME280;3554;42.132;24.786;2023-03-01T12:05:20;99887.94;;;7.72;100.00
7026;BME280;3554;42.132;24.786;2023-03-01T12:07:53;99876.44;;;7.82;100.00
7026;BME280;3554;42.132;24.786;2023-03-01T12:10:27;99883.38;;;7.83;100.00
7026;BME280;3554;42.132;24.786;2023-03-01T12:13:04;99885.97;;;7.82;100.00
7026;BME280;3554;42.132;24.786;2023-03-01T12:15:42;99888.78;;;7.74;100.00
7026;BME280;3554;42.132;24.786;2023-03-01T12:18:34;99890.38;;;7.81;100.00
7026;BME280;3554;42.132;24.786;2023-03-01T12:21:16;99885.97;;;7.82;100.00
7026;BME280;3554;42.132;24.786;2023-03-01T12:26:58;99860.47;;;7.97;100.00
7026;BME280;3554;42.132;24.786;2023-03-01T12:29:32;99864.06;;;7.92;100.00
7026;BME280;3554;42.132;24.786;2023-03-01T12:32:15;99867.50;;;7.94;100.00
7026;BME280;3554;42.132;24.786;2023-03-01T12:37:54;99866.72;;;7.89;100.00
7026;BME280;3554;42.132;24.786;2023-03-01T12:40:42;99849.19;;;7.97;100.00
7026;BME280;3554;42.132;24.786;2023-03-01T12:43:27;99848.59;;;7.84;100.00
7026;BME280;3554;42.132;24.786;2023-03-01T12:46:10;99838.84;;;7.92;100.00
7026;BME280;3554;42.132;24.786;2023-03-01T12:48:48;99841.91;;;7.71;100.00
7026;BME280;3554;42.132;24.786;2023-03-01T12:51:20;99847.53;;;7.51;100.00
7026;BME280;3554;42.132;24.786;2023-03-01T12:53:53;99827.03;;;7.36;100.00
7026;BME280;3554;42.132;24.786;2023-03-01T12:56:22;99842.59;;;7.39;100.00
7026;BME280;3554;42.132;24.786;2023-03-01T12:58:57;99831.28;;;7.42;100.00
7026;BME280;3554;42.132;24.786;2023-03-01T13:01:33;99787.50;;;7.18;100.00
7026;BME280;3554;42.132;24.786;2023-03-01T13:04:17;99803.50;;;7.41;100.00
7026;BME280;3554;42.132;24.786;2023-03-01T13:06:52;99803.66;;;7.33;100.00
7026;BME280;3554;42.132;24.786;2023-03-01T13:09:29;99783.72;;;7.32;100.00
7026;BME280;3554;42.132;24.786;2023-03-01T13:11:59;99790.56;;;7.38;100.00
7026;BME280;3554;42.132;24.786;2023-03-01T13:14:45;99758.38;;;7.40;100.00
7026;BME280;3554;42.132;24.786;2023-03-01T13:17:33;99735.91;;;7.36;100.00
7026;BME280;3554;42.132;24.786;2023-03-01T13:20:13;99773.88;;;7.46;100.00
7026;BME280;3554;42.132;24.786;2023-03-01T13:22:40;99774.63;;;7.51;100.00
7026;BME280;3554;42.132;24.786;2023-03-01T13:25:18;99747.91;;;7.43;100.00
7026;BME280;3554;42.132;24.786;2023-03-01T13:27:46;99750.22;;;7.55;100.00
7026;BME280;3554;42.132;24.786;2023-03-01T13:30:38;99767.50;;;7.59;100.00